createdAt,value
2018-06-11T00:00:32.905Z,2.53
2018-06-11T00:02:59.750Z,1.97
2018-06-11T00:05:26.547Z,2.03
2018-06-11T00:07:53.273Z,2.30
2018-06-11T00:10:20.073Z,2.20
2018-06-11T00:12:50.359Z,2.77
2018-06-11T00:15:16.985Z,2.20
2018-06-11T00:17:43.741Z,2.07
2018-06-11T00:20:10.273Z,2.40
2018-06-11T00:22:38.128Z,2.13
2018-06-11T00:25:04.804Z,2.20
2018-06-11T00:27:31.579Z,2.43
2018-06-11T00:29:58.293Z,2.37
2018-06-11T00:32:25.954Z,2.50
2018-06-11T00:34:52.848Z,2.00
2018-06-11T00:37:19.448Z,2.20
2018-06-11T00:39:46.151Z,2.37
2018-06-11T00:42:15.946Z,1.97
2018-06-11T00:44:42.731Z,2.30
2018-06-11T00:47:09.502Z,1.93
2018-06-11T00:49:36.142Z,2.10
2018-06-11T00:52:10.699Z,1.83
2018-06-11T00:54:37.393Z,2.07
2018-06-11T00:57:04.096Z,2.10
2018-06-11T00:59:30.676Z,2.30
2018-06-11T01:01:57.472Z,2.50
2018-06-11T01:04:24.096Z,2.33
2018-06-11T01:06:50.782Z,2.57
2018-06-11T01:09:17.465Z,2.43
2018-06-11T01:11:48.005Z,2.60
2018-06-11T01:14:14.672Z,2.40
2018-06-11T01:16:41.378Z,2.57
2018-06-11T01:19:08.093Z,2.00
2018-06-11T01:21:34.890Z,1.87
2018-06-11T01:24:02.501Z,2.17
2018-06-11T01:26:29.189Z,2.50
2018-06-11T01:28:55.821Z,2.30
2018-06-11T01:31:22.399Z,2.12
2018-06-11T01:33:49.373Z,2.00
2018-06-11T01:36:16.083Z,2.20
2018-06-11T01:38:42.849Z,2.03
2018-06-11T01:41:09.639Z,2.03
2018-06-11T01:43:39.727Z,1.83
2018-06-11T01:46:06.500Z,2.03
2018-06-11T01:48:33.305Z,1.83
2018-06-11T01:51:00.082Z,2.20
2018-06-11T01:53:34.615Z,2.47
2018-06-11T01:56:01.377Z,2.43
2018-06-11T01:58:28.214Z,2.20
2018-06-11T02:00:54.987Z,2.03
2018-06-11T02:03:22.911Z,2.33
2018-06-11T02:05:49.696Z,2.30
2018-06-11T02:08:16.415Z,3.00
2018-06-11T02:10:43.130Z,2.77
2018-06-11T02:13:13.507Z,2.80
2018-06-11T02:15:40.155Z,2.70
2018-06-11T02:18:06.936Z,2.83
2018-06-11T02:20:33.588Z,3.40
2018-06-11T02:23:06.121Z,3.17
2018-06-11T02:25:32.722Z,3.53
2018-06-11T02:27:59.313Z,2.60
2018-06-11T02:30:26.231Z,2.40
2018-06-11T02:32:52.974Z,2.33
2018-06-11T02:35:19.642Z,2.20
2018-06-11T02:37:46.371Z,2.10
2018-06-11T02:40:13.057Z,2.50
2018-06-11T02:42:42.992Z,2.23
2018-06-11T02:45:09.806Z,2.23
2018-06-11T02:47:36.437Z,2.90
2018-06-11T02:50:03.108Z,2.80
2018-06-11T02:52:37.363Z,3.13
2018-06-11T02:55:04.130Z,3.13
2018-06-11T02:57:30.666Z,3.27
2018-06-11T02:59:57.531Z,3.30
2018-06-11T03:02:24.145Z,3.60
2018-06-11T03:04:50.823Z,3.90
2018-06-11T03:07:17.669Z,3.77
2018-06-11T03:09:44.365Z,3.57
2018-06-11T03:12:11.081Z,3.70
2018-06-11T03:14:37.720Z,3.83
2018-06-11T03:17:04.324Z,3.83
2018-06-11T03:19:34.918Z,3.40
2018-06-11T03:22:06.332Z,3.90
2018-06-11T03:24:32.818Z,3.60
2018-06-11T03:26:59.487Z,4.07
2018-06-11T03:29:26.430Z,3.90
2018-06-11T03:31:56.346Z,4.07
2018-06-11T03:34:23.086Z,4.30
2018-06-11T03:36:49.785Z,4.37
2018-06-11T03:39:16.454Z,4.27
2018-06-11T03:41:43.169Z,3.67
2018-06-11T03:44:09.902Z,3.40
2018-06-11T03:46:36.747Z,2.90
2018-06-11T03:49:03.434Z,2.73
2018-06-11T03:51:30.283Z,3.43
2018-06-11T03:53:57.001Z,5.57
2018-06-11T03:56:23.754Z,5.80
2018-06-11T03:58:50.478Z,5.33
2018-06-11T04:01:20.917Z,4.90
2018-06-11T04:03:47.653Z,4.40
2018-06-11T04:06:14.342Z,4.30
2018-06-11T04:08:41.020Z,4.53
2018-06-11T04:11:08.793Z,4.27
2018-06-11T04:13:35.331Z,4.13
2018-06-11T04:16:02.069Z,4.47
2018-06-11T04:18:28.737Z,4.20
2018-06-11T04:20:55.401Z,4.80
2018-06-11T04:23:21.992Z,7.27
2018-06-11T04:25:48.573Z,4.73
2018-06-11T04:28:18.761Z,4.53
2018-06-11T04:30:45.506Z,4.47
2018-06-11T04:33:12.248Z,4.33
2018-06-11T04:35:39.165Z,4.37
2018-06-11T04:38:05.751Z,4.23
2018-06-11T04:40:32.408Z,4.77
2018-06-11T04:42:59.034Z,4.70
2018-06-11T04:45:25.678Z,4.80
2018-06-11T04:47:52.393Z,5.43
2018-06-11T04:50:20.314Z,5.07
2018-06-11T04:52:47.034Z,5.17
2018-06-11T04:55:13.538Z,5.07
2018-06-11T04:57:40.270Z,4.90
2018-06-11T05:00:07.783Z,5.03
2018-06-11T05:02:34.466Z,4.80
2018-06-11T05:05:01.341Z,4.77
2018-06-11T05:07:28.018Z,5.30
2018-06-11T05:09:54.919Z,5.03
2018-06-11T05:12:25.313Z,4.67
2018-06-11T05:14:52.064Z,4.97
2018-06-11T05:17:18.894Z,5.00
2018-06-11T05:19:50.272Z,5.73
2018-06-11T05:22:17.036Z,6.70
2018-06-11T05:24:43.779Z,6.17
2018-06-11T05:27:10.339Z,7.27
2018-06-11T05:29:37.057Z,8.60
2018-06-11T05:32:03.784Z,8.03
2018-06-11T05:34:30.601Z,8.70
2018-06-11T05:36:57.239Z,7.23
2018-06-11T05:39:31.525Z,8.53
2018-06-11T05:41:58.327Z,7.43
2018-06-11T05:44:24.980Z,6.73
2018-06-11T05:46:51.746Z,7.00
2018-06-11T05:49:21.614Z,7.37
2018-06-11T05:51:48.237Z,7.77
2018-06-11T05:54:14.843Z,8.03
2018-06-11T05:56:41.627Z,9.93
2018-06-11T05:59:14.320Z,12.53
2018-06-11T06:01:40.990Z,14.43
2018-06-11T06:04:07.605Z,17.50
2018-06-11T06:06:34.186Z,15.97
2018-06-11T06:09:04.325Z,20.23
2018-06-11T06:11:30.884Z,21.07
2018-06-11T06:13:57.583Z,17.67
2018-06-11T06:16:24.418Z,15.87
2018-06-11T06:18:51.154Z,17.43
2018-06-11T06:21:17.939Z,14.77
2018-06-11T19:15:51.981Z,4.43
2018-06-11T19:18:23.210Z,4.93
2018-06-11T19:20:53.644Z,5.60
2018-06-11T19:23:23.731Z,5.73
2018-06-11T19:25:54.084Z,5.13
2018-06-11T19:28:24.422Z,4.93
2018-06-11T19:30:54.865Z,5.60
2018-06-11T19:33:25.367Z,5.07
2018-06-11T19:35:55.643Z,5.50
2018-06-11T19:38:25.875Z,5.50
2018-06-11T19:40:56.087Z,4.70
2018-06-11T19:43:28.999Z,4.93
2018-06-11T19:46:00.833Z,5.60
2018-06-11T19:48:35.675Z,5.20
2018-06-11T19:51:06.076Z,6.23
2018-06-11T19:53:36.235Z,5.57
2018-06-11T19:56:06.668Z,6.33
2018-06-11T19:58:39.020Z,5.70
2018-06-11T20:01:09.461Z,5.63
2018-06-11T20:03:39.812Z,5.70
2018-06-11T20:06:10.123Z,6.33
2018-06-11T20:08:44.974Z,5.87
2018-06-11T20:11:15.393Z,6.00
2018-06-11T20:13:45.823Z,6.53
2018-06-11T20:16:16.334Z,5.53
2018-06-11T20:18:47.345Z,6.37
2018-06-11T20:21:17.749Z,5.90
2018-06-11T20:23:47.675Z,5.50
2018-06-11T20:26:18.070Z,5.57
2018-06-11T20:28:49.386Z,5.93
2018-06-11T20:31:19.793Z,5.17
2018-06-11T20:33:50.211Z,5.57
2018-06-11T20:36:20.689Z,6.97
2018-06-11T20:38:54.245Z,6.20
2018-06-11T20:41:24.666Z,6.30
2018-06-11T20:43:55.930Z,5.87
2018-06-11T20:46:26.288Z,6.70
2018-06-11T20:48:56.833Z,7.00
2018-06-11T20:51:27.244Z,6.57
2018-06-11T20:53:57.523Z,6.53
2018-06-11T20:56:28.054Z,6.10
2018-06-11T20:58:58.230Z,6.60
2018-06-11T21:01:28.606Z,5.83
2018-06-11T21:03:59.002Z,5.70
2018-06-11T21:06:29.393Z,6.13
2018-06-11T21:08:59.801Z,6.20
2018-06-11T21:11:30.301Z,6.20
2018-06-11T21:14:00.636Z,5.40
2018-06-11T21:18:50.364Z,5.90
2018-06-11T21:21:20.776Z,6.00
2018-06-11T21:23:51.125Z,6.10
2018-06-11T21:26:21.462Z,6.00
2018-06-11T21:28:52.882Z,5.63
2018-06-11T21:31:24.358Z,5.70
2018-06-11T21:33:54.756Z,5.90
2018-06-11T21:36:25.072Z,5.90
2018-06-11T21:38:56.342Z,6.03
2018-06-11T21:41:26.733Z,5.87
2018-06-11T21:43:56.975Z,5.63
2018-06-11T21:46:27.243Z,5.00
2018-06-11T21:48:57.769Z,5.63
2018-06-11T21:51:28.214Z,6.03
2018-06-11T21:54:01.490Z,5.20
2018-06-11T21:56:31.720Z,5.30
2018-06-11T21:59:03.231Z,5.43
2018-06-11T22:01:33.778Z,5.60
2018-06-11T22:04:04.363Z,5.47
2018-06-11T22:06:34.286Z,5.13
2018-06-11T22:09:04.677Z,5.13
2018-06-11T22:11:34.847Z,4.73
2018-06-11T22:14:04.958Z,4.70
2018-06-11T22:16:35.362Z,4.57
2018-06-11T22:19:05.646Z,4.37
2018-06-11T22:21:35.928Z,4.53
2018-06-11T22:24:07.205Z,4.30
2018-06-11T22:26:37.372Z,4.67
2018-06-11T22:29:07.803Z,4.97
2018-06-11T22:31:38.186Z,4.97
2018-06-11T22:34:08.437Z,4.73
2018-06-11T22:36:38.862Z,4.53
2018-06-11T22:39:09.410Z,4.77
2018-06-11T22:41:39.809Z,4.80
2018-06-11T22:44:10.038Z,4.90
2018-06-11T22:46:40.310Z,4.80
2018-06-11T22:49:10.736Z,4.83
2018-06-11T22:51:41.150Z,5.60
2018-06-11T22:54:11.561Z,4.70
2018-06-11T22:56:41.674Z,4.63
2018-06-11T22:59:15.590Z,4.50
2018-06-11T23:01:46.005Z,5.10
2018-06-11T23:04:16.372Z,5.20
2018-06-11T23:06:46.776Z,5.37
2018-06-11T23:09:16.981Z,5.23
2018-06-11T23:11:47.377Z,5.00
2018-06-11T23:14:17.710Z,5.17
2018-06-11T23:16:47.823Z,4.60
2018-06-11T23:19:18.163Z,5.10
2018-06-11T23:21:48.521Z,4.57
2018-06-11T23:24:18.525Z,5.20
2018-06-11T23:26:48.930Z,4.67
2018-06-11T23:29:20.135Z,4.93
2018-06-11T23:31:50.458Z,5.17
2018-06-11T23:34:20.842Z,4.43
2018-06-11T23:36:51.153Z,4.57
2018-06-11T23:39:22.404Z,4.53
2018-06-11T23:41:52.713Z,4.83
2018-06-11T23:44:23.039Z,4.70
2018-06-11T23:46:53.453Z,4.50
2018-06-11T23:49:27.045Z,4.60
2018-06-11T23:51:57.558Z,4.77
2018-06-11T23:54:27.898Z,4.40
2018-06-11T23:56:58.297Z,4.60
2018-06-11T23:59:29.504Z,4.70
